Time,TemperatureF,DewpointF,PressureIn,WindDirection,WindDirectionDegrees,WindSpeedMPH,WindSpeedGustMPH,Humidity,HourlyPrecipIn,Conditions,Clouds,dailyrainin,SoftwareType,DateUTC
2013-02-06 00:00:00,25.3,23.3,30.00,ESE,123,0.0,4.0,92,0.00,RMK !SN!,RMK !SN!,0.00,WUHU216DAVISVP2,2013-02-06 05:00:00,
2013-02-06 00:05:00,25.5,23.2,30.00,East,89,1.0,5.0,91,0.00,RMK !SN!,RMK !SN!,0.00,WUHU216DAVISVP2,2013-02-06 05:05:00,
2013-02-06 00:10:00,25.7,23.4,30.01,ENE,70,2.0,6.0,91,0.00,RMK !SN!,RMK !SN!,0.00,WUHU216DAVISVP2,2013-02-06 05:10:00,
2013-02-06 00:15:00,25.8,23.5,30.01,ESE,111,1.0,6.0,91,0.00,RMK !SN!,RMK !SN!,0.00,WUHU216DAVISVP2,2013-02-06 05:15:00,
2013-02-06 00:20:00,25.8,23.5,30.01,ENE,68,1.0,6.0,91,0.00,RMK !SN!,RMK !SN!,0.00,WUHU216DAVISVP2,2013-02-06 05:20:00,
2013-02-06 00:25:00,26.0,23.7,30.02,ESE,121,1.0,4.0,91,0.00,RMK !SN!,RMK !SN!,0.00,WUHU216DAVISVP2,2013-02-06 05:25:00,
2013-02-06 00:30:00,26.0,23.7,30.02,East,87,0.0,4.0,91,0.00,RMK !SN!,RMK !SN!,0.00,WUHU216DAVISVP2,2013-02-06 05:30:00,
2013-02-06 00:35:00,26.1,23.8,30.02,East,98,0.0,4.0,91,0.00,RMK !SN!,RMK !SN!,0.00,WUHU216DAVISVP2,2013-02-06 05:35:00,
2013-02-06 00:40:00,26.1,23.8,30.02,East,98,0.0,5.0,91,0.00,RMK !SN!,RMK !SN!,0.00,WUHU216DAVISVP2,2013-02-06 05:40:00,
2013-02-06 00:45:00,26.1,23.8,30.03,ESE,105,0.0,5.0,91,0.00,RMK !SN!,RMK !SN!,0.00,WUHU216DAVISVP2,2013-02-06 05:45:00,
2013-02-06 00:50:00,26.2,23.9,30.03,NE,44,1.0,4.0,91,0.00,RMK !SN!,RMK !SN!,0.00,WUHU216DAVISVP2,2013-02-06 05:50:00,
2013-02-06 00:55:00,26.2,23.9,30.03,East,90,0.0,6.0,91,0.00,RMK !SN!,RMK !SN!,0.00,WUHU216DAVISVP2,2013-02-06 05:55:00,
2013-02-06 01:00:00,26.2,23.9,30.03,East,81,0.0,6.0,91,0.00,RMK !SN!,RMK !SN!,0.00,WUHU216DAVISVP2,2013-02-06 06:00:00,
2013-02-06 01:05:00,26.2,23.9,30.03,ESE,120,0.0,6.0,91,0.00,RMK !SN!,RMK !SN!,0.00,WUHU216DAVISVP2,2013-02-06 06:05:00,
2013-02-06 01:10:00,26.2,23.9,30.03,ENE,65,1.0,6.0,91,0.00,RMK !SN!,RMK !SN!,0.00,WUHU216DAVISVP2,2013-02-06 06:10:00,
2013-02-06 01:15:00,26.2,23.9,30.03,East,89,0.0,6.0,91,0.00,RMK !SN!,RMK !SN!,0.00,WUHU216DAVISVP2,2013-02-06 06:15:00,
2013-02-06 01:20:00,26.2,23.9,30.03,ESE,108,0.0,6.0,91,0.00,RMK !SN!,RMK !SN!,0.00,WUHU216DAVISVP2,2013-02-06 06:20:00,
2013-02-06 01:25:00,26.2,23.9,30.04,SSE,158,0.0,7.0,91,0.00,RMK !SN!,RMK !SN!,0.00,WUHU216DAVISVP2,2013-02-06 06:25:00,
2013-02-06 01:30:00,26.2,23.9,30.04,ENE,70,2.0,7.0,91,0.00,RMK !SN!,RMK !SN!,0.00,WUHU216DAVISVP2,2013-02-06 06:30:00,
2013-02-06 01:35:00,26.2,23.9,30.04,East,90,1.0,8.0,91,0.00,RMK !SN!,RMK !SN!,0.00,WUHU216DAVISVP2,2013-02-06 06:35:00,
2013-02-06 01:40:00,26.2,23.9,30.04,SE,131,0.0,8.0,91,0.00,RMK !SN!,RMK !SN!,0.00,WUHU216DAVISVP2,2013-02-06 06:40:00,
2013-02-06 01:45:00,26.3,24.0,30.04,NE,51,2.0,7.0,91,0.00,RMK !SN!,RMK !SN!,0.00,WUHU216DAVISVP2,2013-02-06 06:45:00,
2013-02-06 01:50:00,26.3,24.0,30.05,SE,128,0.0,7.0,91,0.00,RMK !SN!,RMK !SN!,0.00,WUHU216DAVISVP2,2013-02-06 06:50:00,
2013-02-06 01:55:00,26.4,24.1,30.05,ENE,60,2.0,5.0,91,0.00,RMK !SN!,RMK !SN!,0.00,WUHU216DAVISVP2,2013-02-06 06:55:00,
2013-02-06 02:00:00,26.5,24.2,30.05,South,180,1.0,4.0,91,0.00,RMK !SN!,RMK !SN!,0.00,WUHU216DAVISVP2,2013-02-06 07:00:00,
2013-02-06 02:05:00,26.6,24.3,30.05,ENE,64,1.0,7.0,91,0.00,RMK !SN!,RMK !SN!,0.00,WUHU216DAVISVP2,2013-02-06 07:05:00,
2013-02-06 02:10:00,26.6,24.3,30.05,SE,131,2.0,7.0,91,0.00,RMK !SN!,RMK !SN!,0.00,WUHU216DAVISVP2,2013-02-06 07:10:00,
2013-02-06 02:15:00,26.7,24.4,30.05,ESE,117,0.0,6.0,91,0.00,RMK !SN!,RMK !SN!,0.00,WUHU216DAVISVP2,2013-02-06 07:15:00,
2013-02-06 02:20:00,26.7,24.4,30.05,ENE,65,1.0,6.0,91,0.00,RMK !SN!,RMK !SN!,0.00,WUHU216DAVISVP2,2013-02-06 07:20:00,
2013-02-06 02:25:00,26.8,24.5,30.06,SE,124,1.0,5.0,91,0.00,RMK !SN!,RMK !SN!,0.00,WUHU216DAVISVP2,2013-02-06 07:25:00,
2013-02-06 02:30:00,26.8,24.5,30.06,ENE,63,2.0,6.0,91,0.00,RMK !SN!,RMK !SN!,0.00,WUHU216DAVISVP2,2013-02-06 07:30:00,
2013-02-06 02:35:00,26.8,24.5,30.06,ENE,68,1.0,10.0,91,0.00,RMK !SN!,RMK !SN!,0.00,WUHU216DAVISVP2,2013-02-06 07:35:00,
2013-02-06 02:40:00,26.8,24.5,30.06,East,98,3.0,10.0,91,0.00,RMK !SN!,RMK !SN!,0.00,WUHU216DAVISVP2,2013-02-06 07:40:00,
2013-02-06 02:45:00,26.8,24.5,30.06,ENE,59,3.0,9.0,91,0.00,RMK !SN!,RMK !SN!,0.00,WUHU216DAVISVP2,2013-02-06 07:45:00,
2013-02-06 02:50:00,26.8,24.5,30.07,ESE,110,1.0,9.0,91,0.00,RMK !SN!,RMK !SN!,0.00,WUHU216DAVISVP2,2013-02-06 07:50:00,
2013-02-06 02:55:00,26.8,24.5,30.07,East,86,1.0,8.0,91,0.00,RMK !SN!,RMK !SN!,0.00,WUHU216DAVISVP2,2013-02-06 07:55:00,
2013-02-06 03:00:00,26.8,24.5,30.08,SE,142,1.0,8.0,91,0.00,RMK !SN!,RMK !SN!,0.00,WUHU216DAVISVP2,2013-02-06 08:00:00,
2013-02-06 03:05:00,26.8,24.5,30.08,SE,134,1.0,9.0,91,0.00,RMK !SN!,RMK !SN!,0.00,WUHU216DAVISVP2,2013-02-06 08:05:00,
2013-02-06 03:10:00,26.9,24.6,30.08,East,79,1.0,9.0,91,0.00,RMK !SN!,RMK !SN!,0.00,WUHU216DAVISVP2,2013-02-06 08:10:00,
2013-02-06 03:15:00,26.8,24.5,30.09,South,169,2.0,12.0,91,0.00,RMK !SN!,RMK !SN!,0.00,WUHU216DAVISVP2,2013-02-06 08:15:00,
2013-02-06 03:20:00,26.8,24.5,30.09,ENE,74,2.0,12.0,91,0.00,RMK !SN!,RMK !SN!,0.00,WUHU216DAVISVP2,2013-02-06 08:20:00,
2013-02-06 03:25:00,26.8,24.7,30.09,SE,131,0.0,11.0,92,0.00,RMK !SN!,RMK !SN!,0.00,WUHU216DAVISVP2,2013-02-06 08:25:00,
2013-02-06 03:30:00,26.8,24.8,30.10,ESE,107,1.0,13.0,92,0.00,RMK !SN!,RMK !SN!,0.00,WUHU216DAVISVP2,2013-02-06 08:30:00,
2013-02-06 03:35:00,26.8,24.7,30.10,East,101,5.0,13.0,92,0.00,RMK !SN!,RMK !SN!,0.00,WUHU216DAVISVP2,2013-02-06 08:35:00,
2013-02-06 03:40:00,26.8,24.8,30.10,ESE,117,6.0,16.0,92,0.00,RMK !SN!,RMK !SN!,0.00,WUHU216DAVISVP2,2013-02-06 08:40:00,
2013-02-06 03:45:00,26.8,24.7,30.10,ESE,108,5.0,16.0,92,0.00,RMK !SN!,RMK !SN!,0.00,WUHU216DAVISVP2,2013-02-06 08:45:00,
2013-02-06 03:50:00,26.7,24.6,30.10,ESE,108,4.0,14.0,92,0.00,RMK !SN!,RMK !SN!,0.00,WUHU216DAVISVP2,2013-02-06 08:50:00,
2013-02-06 03:55:00,26.7,24.6,30.10,East,90,4.0,14.0,92,0.00,RMK !SN!,RMK !SN!,0.00,WUHU216DAVISVP2,2013-02-06 08:55:00,
2013-02-06 04:00:00,26.6,24.5,30.11,NE,54,3.0,13.0,92,0.00,RMK !SN!,RMK !SN!,0.00,WUHU216DAVISVP2,2013-02-06 09:00:00,
2013-02-06 04:05:00,26.6,24.5,30.11,ENE,72,0.0,12.0,92,0.00,RMK !SN!,RMK !SN!,0.00,WUHU216DAVISVP2,2013-02-06 09:05:00,
2013-02-06 04:10:00,26.6,24.5,30.11,ENE,57,4.0,9.0,92,0.00,RMK !SN!,RMK !SN!,0.00,WUHU216DAVISVP2,2013-02-06 09:10:00,
2013-02-06 04:15:00,26.4,24.1,30.11,ENE,73,1.0,9.0,91,0.00,RMK !SN!,RMK !SN!,0.00,WUHU216DAVISVP2,2013-02-06 09:15:00,
2013-02-06 04:20:00,26.4,24.1,30.11,East,91,2.0,8.0,91,0.00,RMK !SN!,RMK !SN!,0.00,WUHU216DAVISVP2,2013-02-06 09:20:00,
2013-02-06 04:25:00,26.3,24.0,30.12,ENE,70,2.0,7.0,91,0.00,RMK !SN!,RMK !SN!,0.00,WUHU216DAVISVP2,2013-02-06 09:25:00,
2013-02-06 04:30:00,26.3,24.0,30.12,SE,136,1.0,6.0,91,0.00,RMK !SN!,RMK !SN!,0.00,WUHU216DAVISVP2,2013-02-06 09:30:00,
2013-02-06 04:35:00,26.1,23.8,30.13,SE,146,2.0,9.0,91,0.00,RMK !SN!,RMK !SN!,0.00,WUHU216DAVISVP2,2013-02-06 09:35:00,
2013-02-06 04:40:00,25.5,22.9,30.13,SSE,166,1.0,9.0,90,0.00,RMK !SN!,RMK !SN!,0.00,WUHU216DAVISVP2,2013-02-06 09:40:00,
2013-02-06 04:45:00,24.9,22.1,30.13,South,184,6.0,11.0,89,0.00,RMK !SN!,RMK !SN!,0.00,WUHU216DAVISVP2,2013-02-06 09:45:00,
2013-02-06 04:50:00,24.4,21.6,30.13,South,191,3.0,11.0,89,0.00,RMK !SN!,RMK !SN!,0.00,WUHU216DAVISVP2,2013-02-06 09:50:00,
2013-02-06 04:56:00,24.0,20.9,30.13,SE,134,1.0,11.0,88,0.00,RMK !SN!,RMK !SN!,0.00,WUHU216DAVISVP2,2013-02-06 09:56:00,
2013-02-06 05:01:00,23.8,20.7,30.14,SE,146,7.0,11.0,88,0.00,RMK !SN!,RMK !SN!,0.00,WUHU216DAVISVP2,2013-02-06 10:01:00,
2013-02-06 05:06:00,23.7,20.9,30.14,SSE,153,2.0,11.0,89,0.00,RMK !SN!,RMK !SN!,0.00,WUHU216DAVISVP2,2013-02-06 10:06:00,
2013-02-06 05:11:00,23.6,20.8,30.15,SE,146,1.0,10.0,89,0.00,RMK !SN!,RMK !SN!,0.00,WUHU216DAVISVP2,2013-02-06 10:11:00,
2013-02-06 05:16:00,23.4,20.3,30.16,SE,142,2.0,10.0,88,0.00,RMK !SN!,RMK !SN!,0.00,WUHU216DAVISVP2,2013-02-06 10:16:00,
2013-02-06 05:21:00,23.2,19.9,30.16,South,169,6.0,10.0,87,0.00,RMK !SN!,RMK !SN!,0.00,WUHU216DAVISVP2,2013-02-06 10:21:00,
2013-02-06 05:26:00,23.1,19.8,30.17,South,173,5.0,10.0,87,0.00,RMK !SN!,RMK !SN!,0.00,WUHU216DAVISVP2,2013-02-06 10:26:00,
2013-02-06 05:31:00,23.1,20.0,30.17,SSW,193,6.0,10.0,88,0.00,RMK !SN!,RMK !SN!,0.00,WUHU216DAVISVP2,2013-02-06 10:31:00,
2013-02-06 05:36:00,23.0,20.0,30.17,SSE,150,0.0,10.0,88,0.00,RMK !SN!,RMK !SN!,0.00,WUHU216DAVISVP2,2013-02-06 10:36:00,
2013-02-06 05:41:00,22.9,19.8,30.18,ESE,112,5.0,10.0,88,0.00,RMK !SN!,RMK !SN!,0.00,WUHU216DAVISVP2,2013-02-06 10:41:00,
2013-02-06 05:46:00,22.7,19.1,30.18,South,179,6.0,10.0,86,0.00,RMK !SN!,RMK !SN!,0.00,WUHU216DAVISVP2,2013-02-06 10:46:00,
2013-02-06 05:51:00,22.5,18.9,30.18,SSE,149,0.0,10.0,86,0.00,RMK !SN!,RMK !SN!,0.00,WUHU216DAVISVP2,2013-02-06 10:51:00,
2013-02-06 05:56:00,22.4,18.5,30.19,SE,128,1.0,12.0,85,0.00,RMK !SN!,RMK !SN!,0.00,WUHU216DAVISVP2,2013-02-06 10:56:00,
2013-02-06 06:01:00,22.2,18.1,30.19,SE,145,2.0,12.0,84,0.00,RMK !SN!,RMK !SN!,0.00,WUHU216DAVISVP2,2013-02-06 11:01:00,
2013-02-06 06:06:00,22.1,18.0,30.20,ESE,121,1.0,12.0,84,0.00,RMK !SN!,RMK !SN!,0.00,WUHU216DAVISVP2,2013-02-06 11:06:00,
2013-02-06 06:11:00,22.1,18.0,30.21,SSE,152,2.0,12.0,84,0.00,RMK !SN!,RMK !SN!,0.00,WUHU216DAVISVP2,2013-02-06 11:11:00,
2013-02-06 06:16:00,22.0,17.9,30.21,SE,140,2.0,10.0,84,0.00,RMK !SN!,RMK !SN!,0.00,WUHU216DAVISVP2,2013-02-06 11:16:00,
2013-02-06 06:21:00,22.0,17.9,30.21,SSE,148,1.0,10.0,84,0.00,RMK !SN!,RMK !SN!,0.00,WUHU216DAVISVP2,2013-02-06 11:21:00,
2013-02-06 06:26:00,21.9,17.5,30.22,SE,139,1.0,10.0,83,0.00,RMK !SN!,RMK !SN!,0.00,WUHU216DAVISVP2,2013-02-06 11:26:00,
2013-02-06 06:31:00,21.8,17.1,30.21,SSW,193,4.0,10.0,82,0.00,RMK !SN!,RMK !SN!,0.00,WUHU216DAVISVP2,2013-02-06 11:31:00,
2013-02-06 06:36:00,21.8,17.1,30.22,ESE,120,0.0,9.0,82,0.00,RMK !SN!,RMK !SN!,0.00,WUHU216DAVISVP2,2013-02-06 11:36:00,
2013-02-06 06:41:00,21.7,17.0,30.22,SSE,153,0.0,9.0,82,0.00,RMK !SN!,RMK !SN!,0.00,WUHU216DAVISVP2,2013-02-06 11:41:00,
2013-02-06 06:46:00,21.7,17.3,30.23,ESE,120,0.0,9.0,83,0.00,RMK !SN!,RMK !SN!,0.00,WUHU216DAVISVP2,2013-02-06 11:46:00,
2013-02-06 06:51:00,21.7,17.1,30.23,SSE,152,1.0,7.0,82,0.00,RMK !SN!,RMK !SN!,0.00,WUHU216DAVISVP2,2013-02-06 11:51:00,
2013-02-06 06:56:00,21.7,17.0,30.23,ESE,123,1.0,6.0,82,0.00,RMK !SN!,RMK !SN!,0.00,WUHU216DAVISVP2,2013-02-06 11:56:00,
2013-02-06 07:01:00,21.6,16.9,30.24,East,84,1.0,5.0,82,0.00,RMK !SN!,RMK !SN!,0.00,WUHU216DAVISVP2,2013-02-06 12:01:00,
2013-02-06 07:06:00,21.6,16.7,30.24,SSE,153,1.0,5.0,81,0.00,RMK !SN!,RMK !SN!,0.00,WUHU216DAVISVP2,2013-02-06 12:06:00,
2013-02-06 07:11:00,21.5,16.0,30.24,ESE,118,2.0,5.0,79,0.00,RMK !SN!,RMK !SN!,0.00,WUHU216DAVISVP2,2013-02-06 12:11:00,
2013-02-06 07:16:00,21.5,16.0,30.24,South,174,0.0,5.0,79,0.00,RMK !SN!,RMK !SN!,0.00,WUHU216DAVISVP2,2013-02-06 12:16:00,
2013-02-06 07:21:00,21.4,15.0,30.25,SSW,201,5.0,9.0,76,0.00,RMK !SN!,RMK !SN!,0.00,WUHU216DAVISVP2,2013-02-06 12:21:00,
2013-02-06 07:26:00,21.3,14.9,30.25,SE,127,2.0,9.0,76,0.00,RMK !SN!,RMK !SN!,0.00,WUHU216DAVISVP2,2013-02-06 12:26:00,
2013-02-06 07:32:00,21.2,14.5,30.26,SSE,163,4.0,9.0,75,0.00,RMK !SN!,RMK !SN!,0.00,WUHU216DAVISVP2,2013-02-06 12:32:00,
2013-02-06 07:37:00,21.1,14.4,30.27,SE,134,2.0,11.0,75,0.00,RMK !SN!,RMK !SN!,0.00,WUHU216DAVISVP2,2013-02-06 12:37:00,
2013-02-06 07:42:00,21.1,14.4,30.27,SE,146,2.0,11.0,75,0.00,RMK !SN!,RMK !SN!,0.00,WUHU216DAVISVP2,2013-02-06 12:42:00,
2013-02-06 07:47:00,21.0,14.3,30.27,SSW,203,5.0,11.0,75,0.00,RMK !SN!,RMK !SN!,0.00,WUHU216DAVISVP2,2013-02-06 12:47:00,
2013-02-06 07:52:00,20.9,14.3,30.28,SSE,161,1.0,10.0,75,0.00,RMK !SN!,RMK !SN!,0.00,WUHU216DAVISVP2,2013-02-06 12:52:00,
2013-02-06 07:57:00,20.9,14.3,30.28,SSE,152,0.0,10.0,75,0.00,RMK !SN!,RMK !SN!,0.00,WUHU216DAVISVP2,2013-02-06 12:57:00,
2013-02-06 08:02:00,20.8,14.5,30.28,SSE,155,1.0,10.0,76,0.00,RMK !SN!,RMK !SN!,0.00,WUHU216DAVISVP2,2013-02-06 13:02:00,
2013-02-06 08:07:00,20.8,14.2,30.29,South,183,0.0,10.0,75,0.00,RMK !SN!,RMK !SN!,0.00,WUHU216DAVISVP2,2013-02-06 13:07:00,
2013-02-06 08:12:00,20.7,14.1,30.29,SSE,159,0.0,7.0,75,0.00,RMK !SN!,RMK !SN!,0.00,WUHU216DAVISVP2,2013-02-06 13:12:00,
2013-02-06 08:17:00,20.8,14.2,30.29,SSW,194,4.0,7.0,75,0.00,RMK !SN!,RMK !SN!,0.00,WUHU216DAVISVP2,2013-02-06 13:17:00,
2013-02-06 08:22:00,20.8,14.2,30.29,SSE,166,1.0,7.0,75,0.00,RMK !SN!,RMK !SN!,0.00,WUHU216DAVISVP2,2013-02-06 13:22:00,
2013-02-06 08:27:00,20.8,14.2,30.30,SSE,155,2.0,7.0,75,0.00,RMK !SN!,RMK !SN!,0.00,WUHU216DAVISVP2,2013-02-06 13:27:00,
2013-02-06 08:32:00,20.8,13.9,30.30,SSE,158,3.0,7.0,74,0.00,RMK !SN!,RMK !SN!,0.00,WUHU216DAVISVP2,2013-02-06 13:32:00,
2013-02-06 08:37:00,20.8,13.8,30.30,SSW,194,11.0,11.0,74,0.00,RMK !SN!,RMK !SN!,0.00,WUHU216DAVISVP2,2013-02-06 13:37:00,
2013-02-06 08:54:00,20.9,13.6,30.31,South,181,4.0,6.0,73,0.00,RMK !SN!,RMK !SN!,0.00,WUHU216DAVISVP2,2013-02-06 13:54:00,
2013-02-06 08:59:00,20.9,13.6,30.31,SSW,194,3.0,9.0,73,0.00,RMK !SN!,RMK !SN!,0.00,WUHU216DAVISVP2,2013-02-06 13:59:00,
2013-02-06 09:04:00,21.0,14.0,30.31,SSE,149,2.0,9.0,74,0.00,RMK !SN!,RMK !SN!,0.00,WUHU216DAVISVP2,2013-02-06 14:04:00,
2013-02-06 09:09:00,21.2,13.9,30.31,South,172,6.0,9.0,73,0.00,RMK !SN!,RMK !SN!,0.00,WUHU216DAVISVP2,2013-02-06 14:09:00,
2013-02-06 09:14:00,21.3,14.0,30.32,SSE,158,2.0,9.0,73,0.00,RMK !SN!,RMK !SN!,0.00,WUHU216DAVISVP2,2013-02-06 14:14:00,
2013-02-06 09:19:00,21.3,14.0,30.32,SSE,153,0.0,8.0,73,0.00,RMK !SN!,RMK !SN!,0.00,WUHU216DAVISVP2,2013-02-06 14:19:00,
2013-02-06 09:24:00,21.4,14.1,30.32,SE,131,0.0,8.0,73,0.00,RMK !SN!,RMK !SN!,0.00,WUHU216DAVISVP2,2013-02-06 14:24:00,
2013-02-06 09:29:00,21.6,14.3,30.32,SSE,165,1.0,8.0,73,0.00,RMK !SN!,RMK !SN!,0.00,WUHU216DAVISVP2,2013-02-06 14:29:00,
2013-02-06 09:34:00,21.8,14.5,30.32,SSE,147,1.0,8.0,73,0.00,RMK !SN!,RMK !SN!,0.00,WUHU216DAVISVP2,2013-02-06 14:34:00,
2013-02-06 09:39:00,22.1,14.8,30.32,SSW,200,4.0,8.0,73,0.00,RMK !SN!,RMK !SN!,0.00,WUHU216DAVISVP2,2013-02-06 14:39:00,
2013-02-06 09:44:00,22.0,14.1,30.32,SSE,150,1.0,6.0,71,0.00,RMK !SN!,RMK !SN!,0.00,WUHU216DAVISVP2,2013-02-06 14:44:00,
2013-02-06 09:49:00,22.1,14.1,30.32,SE,146,1.0,5.0,71,0.00,RMK !SN!,RMK !SN!,0.00,WUHU216DAVISVP2,2013-02-06 14:49:00,
2013-02-06 09:54:00,22.1,14.2,30.32,South,189,4.0,6.0,71,0.00,RMK !SN!,RMK !SN!,0.00,WUHU216DAVISVP2,2013-02-06 14:54:00,
2013-02-06 09:59:00,22.0,14.4,30.32,SSE,149,0.0,6.0,72,0.00,RMK !SN!,RMK !SN!,0.00,WUHU216DAVISVP2,2013-02-06 14:59:00,
2013-02-06 10:04:00,22.3,14.4,30.32,SSE,158,2.0,6.0,71,0.00,RMK !SN!,RMK !SN!,0.00,WUHU216DAVISVP2,2013-02-06 15:04:00,
2013-02-06 10:09:00,22.4,14.8,30.33,ESE,121,0.0,6.0,72,0.00,RMK !SN!,RMK !SN!,0.00,WUHU216DAVISVP2,2013-02-06 15:09:00,
2013-02-06 10:14:00,22.7,14.4,30.33,SSE,163,2.0,5.0,70,0.00,RMK !SN!,RMK !SN!,0.00,WUHU216DAVISVP2,2013-02-06 15:14:00,
2013-02-06 10:19:00,22.6,13.7,30.34,SE,140,0.0,5.0,68,0.00,RMK !SN!,RMK !SN!,0.00,WUHU216DAVISVP2,2013-02-06 15:19:00,
2013-02-06 10:24:00,22.5,13.9,30.33,South,189,2.0,6.0,69,0.00,RMK !SN!,RMK !SN!,0.00,WUHU216DAVISVP2,2013-02-06 15:24:00,
2013-02-06 10:29:00,22.6,13.3,30.33,SW,221,2.0,6.0,67,0.00,RMK !SN!,RMK !SN!,0.00,WUHU216DAVISVP2,2013-02-06 15:29:00,
2013-02-06 10:34:00,22.8,13.9,30.32,SSE,165,4.0,6.0,68,0.00,RMK !SN!,RMK !SN!,0.00,WUHU216DAVISVP2,2013-02-06 15:34:00,
2013-02-06 10:39:00,22.9,14.0,30.32,ESE,120,3.0,6.0,68,0.00,RMK !SN!,RMK !SN!,0.00,WUHU216DAVISVP2,2013-02-06 15:39:00,
2013-02-06 10:44:00,23.3,13.7,30.33,SE,145,0.0,6.0,66,0.00,RMK !SN!,RMK !SN!,0.00,WUHU216DAVISVP2,2013-02-06 15:44:00,
2013-02-06 10:49:00,23.9,14.6,30.32,SE,131,0.0,6.0,67,0.00,RMK !SN!,RMK !SN!,0.00,WUHU216DAVISVP2,2013-02-06 15:49:00,
2013-02-06 10:54:00,24.3,13.9,30.33,South,173,4.0,8.0,64,0.00,RMK !SN!,RMK !SN!,0.00,WUHU216DAVISVP2,2013-02-06 15:54:00,
2013-02-06 10:59:00,24.0,13.9,30.33,South,187,0.0,8.0,65,0.00,RMK !SN!,RMK !SN!,0.00,WUHU216DAVISVP2,2013-02-06 15:59:00,
2013-02-06 11:04:00,24.4,14.7,30.34,SSE,162,1.0,8.0,66,0.00,RMK !SN!,RMK !SN!,0.00,WUHU216DAVISVP2,2013-02-06 16:04:00,
2013-02-06 11:09:00,25.0,14.2,30.34,South,191,3.0,8.0,63,0.00,RMK !SN!,RMK !SN!,0.00,WUHU216DAVISVP2,2013-02-06 16:09:00,
2013-02-06 11:14:00,24.8,14.3,30.33,SE,139,2.0,6.0,64,0.00,RMK !SN!,RMK !SN!,0.00,WUHU216DAVISVP2,2013-02-06 16:14:00,
2013-02-06 11:19:00,24.9,14.4,30.33,South,183,4.0,5.0,64,0.00,RMK !SN!,RMK !SN!,0.00,WUHU216DAVISVP2,2013-02-06 16:19:00,
2013-02-06 11:24:00,24.6,13.4,30.33,SSE,150,0.0,6.0,62,0.00,RMK !SN!,RMK !SN!,0.00,WUHU216DAVISVP2,2013-02-06 16:24:00,
2013-02-06 11:29:00,24.8,14.0,30.34,SSE,167,1.0,6.0,63,0.00,RMK !SN!,RMK !SN!,0.00,WUHU216DAVISVP2,2013-02-06 16:29:00,
2013-02-06 11:34:00,24.9,14.1,30.34,East,83,2.0,7.0,63,0.00,RMK !SN!,RMK !SN!,0.00,WUHU216DAVISVP2,2013-02-06 16:34:00,
2013-02-06 11:39:00,25.3,14.1,30.34,South,170,3.0,7.0,62,0.00,RMK !SN!,RMK !SN!,0.00,WUHU216DAVISVP2,2013-02-06 16:39:00,
2013-02-06 11:44:00,25.3,14.5,30.33,SE,139,1.0,7.0,63,0.00,RMK !SN!,RMK !SN!,0.00,WUHU216DAVISVP2,2013-02-06 16:44:00,
2013-02-06 11:49:00,25.3,14.8,30.34,South,177,1.0,6.0,64,0.00,RMK !SN!,RMK !SN!,0.00,WUHU216DAVISVP2,2013-02-06 16:49:00,
2013-02-06 11:54:00,25.1,14.7,30.34,SSE,167,0.0,6.0,64,0.00,RMK !SN!,RMK !SN!,0.00,WUHU216DAVISVP2,2013-02-06 16:54:00,
2013-02-06 11:59:00,25.3,14.9,30.34,South,169,2.0,6.0,64,0.00,RMK !SN!,RMK !SN!,0.00,WUHU216DAVISVP2,2013-02-06 16:59:00,
2013-02-06 12:04:00,25.2,14.4,30.34,South,174,0.0,6.0,63,0.00,RMK !SN!,RMK !SN!,0.00,WUHU216DAVISVP2,2013-02-06 17:04:00,
2013-02-06 12:09:00,25.8,14.6,30.34,SSE,149,0.0,5.0,62,0.00,RMK !SN!,RMK !SN!,0.00,WUHU216DAVISVP2,2013-02-06 17:09:00,
2013-02-06 12:14:00,25.9,14.0,30.34,SE,145,1.0,5.0,60,0.00,RMK !SN!,RMK !SN!,0.00,WUHU216DAVISVP2,2013-02-06 17:14:00,
2013-02-06 12:19:00,25.7,14.1,30.34,South,181,0.0,5.0,61,0.00,RMK !SN!,RMK !SN!,0.00,WUHU216DAVISVP2,2013-02-06 17:19:00,
2013-02-06 12:24:00,25.7,14.5,30.34,South,172,3.0,5.0,62,0.00,RMK !SN!,RMK !SN!,0.00,WUHU216DAVISVP2,2013-02-06 17:24:00,
2013-02-06 12:29:00,26.0,15.2,30.34,East,88,0.0,5.0,63,0.00,RMK !SN!,RMK !SN!,0.00,WUHU216DAVISVP2,2013-02-06 17:29:00,
2013-02-06 12:34:00,26.1,14.5,30.34,South,170,0.0,5.0,61,0.00,RMK !SN!,RMK !SN!,0.00,WUHU216DAVISVP2,2013-02-06 17:34:00,
2013-02-06 12:39:00,26.3,14.7,30.34,SSW,207,2.0,5.0,61,0.00,RMK !SN!,RMK !SN!,0.00,WUHU216DAVISVP2,2013-02-06 17:39:00,
2013-02-06 12:44:00,26.6,15.3,30.34,South,179,1.0,5.0,62,0.00,RMK !SN!,RMK !SN!,0.00,WUHU216DAVISVP2,2013-02-06 17:44:00,
2013-02-06 12:49:00,26.5,14.9,30.33,ENE,60,1.0,5.0,61,0.00,RMK !SN!,RMK !SN!,0.00,WUHU216DAVISVP2,2013-02-06 17:49:00,
2013-02-06 12:54:00,27.1,15.1,30.33,SE,134,1.0,5.0,60,0.00,RMK !SN!,RMK !SN!,0.00,WUHU216DAVISVP2,2013-02-06 17:54:00,
2013-02-06 12:59:00,27.2,14.4,30.33,SSW,197,2.0,5.0,58,0.00,RMK !SN!,RMK !SN!,0.00,WUHU216DAVISVP2,2013-02-06 17:59:00,
2013-02-06 13:04:00,26.9,13.7,30.33,ESE,120,0.0,5.0,57,0.00,RMK !SN!,RMK !SN!,0.00,WUHU216DAVISVP2,2013-02-06 18:04:00,
2013-02-06 13:09:00,26.7,13.9,30.33,SSE,164,3.0,7.0,58,0.00,RMK !SN!,RMK !SN!,0.00,WUHU216DAVISVP2,2013-02-06 18:09:00,
2013-02-06 13:14:00,26.2,13.4,30.34,East,98,1.0,7.0,58,0.00,RMK !SN!,RMK !SN!,0.00,WUHU216DAVISVP2,2013-02-06 18:14:00,
2013-02-06 13:19:00,26.6,13.8,30.34,South,170,0.0,7.0,58,0.00,RMK !SN!,RMK !SN!,0.00,WUHU216DAVISVP2,2013-02-06 18:19:00,
2013-02-06 13:24:00,26.7,13.5,30.34,SSE,154,0.0,7.0,57,0.00,RMK !SN!,RMK !SN!,0.00,WUHU216DAVISVP2,2013-02-06 18:24:00,
2013-02-06 13:29:00,26.8,13.2,30.34,SSE,157,0.0,5.0,56,0.00,RMK !SN!,RMK !SN!,0.00,WUHU216DAVISVP2,2013-02-06 18:29:00,
2013-02-06 13:34:00,26.7,14.3,30.34,East,84,1.0,6.0,59,0.00,RMK !SN!,RMK !SN!,0.00,WUHU216DAVISVP2,2013-02-06 18:34:00,
2013-02-06 13:39:00,27.0,13.8,30.35,ENE,69,2.0,6.0,57,0.00,RMK !SN!,RMK !SN!,0.00,WUHU216DAVISVP2,2013-02-06 18:39:00,
2013-02-06 13:44:00,27.3,14.5,30.34,SE,127,1.0,5.0,58,0.00,RMK !SN!,RMK !SN!,0.00,WUHU216DAVISVP2,2013-02-06 18:44:00,
2013-02-06 13:49:00,27.6,14.7,30.34,SE,137,0.0,5.0,58,0.00,RMK !SN!,RMK !SN!,0.00,WUHU216DAVISVP2,2013-02-06 18:49:00,
2013-02-06 13:54:00,27.1,13.5,30.34,SSE,163,2.0,3.0,56,0.00,RMK !SN!,RMK !SN!,0.00,WUHU216DAVISVP2,2013-02-06 18:54:00,
2013-02-06 13:59:00,27.0,14.2,30.35,East,89,5.0,5.0,58,0.00,RMK !SN!,RMK !SN!,0.00,WUHU216DAVISVP2,2013-02-06 18:59:00,
2013-02-06 14:04:00,26.8,13.6,30.35,SSE,163,1.0,5.0,57,0.01,RMK !SN!,RMK !SN!,0.01,WUHU216DAVISVP2,2013-02-06 19:04:00,
2013-02-06 14:09:00,26.8,13.6,30.35,South,188,3.0,5.0,57,0.01,RMK !SN!,RMK !SN!,0.01,WUHU216DAVISVP2,2013-02-06 19:09:00,
2013-02-06 14:14:00,26.7,12.7,30.35,SE,130,0.0,4.0,55,0.01,RMK !SN!,RMK !SN!,0.01,WUHU216DAVISVP2,2013-02-06 19:14:00,
2013-02-06 14:19:00,26.8,14.0,30.35,SE,128,1.0,6.0,58,0.01,RMK !SN!,RMK !SN!,0.01,WUHU216DAVISVP2,2013-02-06 19:19:00,
2013-02-06 14:24:00,27.0,14.6,30.36,SE,131,0.0,6.0,59,0.01,RMK !SN!,RMK !SN!,0.01,WUHU216DAVISVP2,2013-02-06 19:24:00,
2013-02-06 14:29:00,27.6,14.8,30.35,East,85,1.0,5.0,58,0.01,RMK !SN!,RMK !SN!,0.01,WUHU216DAVISVP2,2013-02-06 19:29:00,
2013-02-06 14:34:00,27.4,13.8,30.35,ESE,110,2.0,5.0,56,0.02,RMK !SN!,RMK !SN!,0.02,WUHU216DAVISVP2,2013-02-06 19:34:00,
2013-02-06 14:39:00,27.2,14.0,30.35,South,191,3.0,5.0,57,0.02,RMK !SN!,RMK !SN!,0.02,WUHU216DAVISVP2,2013-02-06 19:39:00,
2013-02-06 14:44:00,27.0,14.2,30.35,East,93,0.0,5.0,58,0.02,RMK !SN!,RMK !SN!,0.02,WUHU216DAVISVP2,2013-02-06 19:44:00,
2013-02-06 14:49:00,27.4,14.6,30.35,East,91,1.0,5.0,58,0.02,RMK !SN!,RMK !SN!,0.02,WUHU216DAVISVP2,2013-02-06 19:49:00,
2013-02-06 14:54:00,27.8,14.6,30.35,ESE,119,1.0,5.0,57,0.02,RMK !SN!,RMK !SN!,0.02,WUHU216DAVISVP2,2013-02-06 19:54:00,
2013-02-06 14:59:00,27.7,14.0,30.35,NNE,25,2.0,4.0,56,0.02,RMK !SN!,RMK !SN!,0.02,WUHU216DAVISVP2,2013-02-06 19:59:00,
2013-02-06 15:04:00,28.0,13.9,30.35,NE,40,3.0,4.0,55,0.01,RMK !SN!,RMK !SN!,0.02,WUHU216DAVISVP2,2013-02-06 20:04:00,
2013-02-06 15:09:00,28.2,13.7,30.35,East,88,0.0,4.0,54,0.01,RMK !SN!,RMK !SN!,0.02,WUHU216DAVISVP2,2013-02-06 20:09:00,
2013-02-06 15:14:00,28.2,13.2,30.35,ESE,110,0.0,3.0,53,0.01,RMK !SN!,RMK !SN!,0.02,WUHU216DAVISVP2,2013-02-06 20:14:00,
2013-02-06 15:19:00,28.2,13.2,30.35,East,96,2.0,3.0,53,0.01,RMK !SN!,RMK !SN!,0.02,WUHU216DAVISVP2,2013-02-06 20:19:00,
2013-02-06 15:24:00,28.3,13.3,30.35,East,86,0.0,4.0,53,0.02,RMK !SN!,RMK !SN!,0.03,WUHU216DAVISVP2,2013-02-06 20:24:00,
2013-02-06 15:29:00,28.3,13.3,30.35,East,96,0.0,4.0,53,0.02,RMK !SN!,RMK !SN!,0.03,WUHU216DAVISVP2,2013-02-06 20:29:00,
2013-02-06 15:34:00,28.3,12.4,30.35,East,92,0.0,4.0,51,0.01,RMK !SN!,RMK !SN!,0.03,WUHU216DAVISVP2,2013-02-06 20:34:00,
2013-02-06 15:39:00,28.1,12.2,30.35,SSE,152,1.0,4.0,51,0.01,RMK !SN!,RMK !SN!,0.03,WUHU216DAVISVP2,2013-02-06 20:39:00,
2013-02-06 15:44:00,28.0,12.1,30.36,SSE,152,0.0,3.0,51,0.01,RMK !SN!,RMK !SN!,0.03,WUHU216DAVISVP2,2013-02-06 20:44:00,
2013-02-06 15:49:00,28.0,12.1,30.36,SSE,148,0.0,3.0,51,0.01,RMK !SN!,RMK !SN!,0.03,WUHU216DAVISVP2,2013-02-06 20:49:00,
2013-02-06 15:54:00,28.2,12.8,30.36,ESE,110,0.0,3.0,52,0.01,RMK !SN!,RMK !SN!,0.03,WUHU216DAVISVP2,2013-02-06 20:54:00,
2013-02-06 15:59:00,28.7,12.8,30.35,ENE,62,1.0,3.0,51,0.01,RMK !SN!,RMK !SN!,0.03,WUHU216DAVISVP2,2013-02-06 20:59:00,
2013-02-06 16:04:00,28.3,12.9,30.35,ESE,109,0.0,3.0,52,0.02,RMK !SN!,RMK !SN!,0.04,WUHU216DAVISVP2,2013-02-06 21:04:00,
2013-02-06 16:09:00,28.6,13.2,30.36,East,93,0.0,2.0,52,0.02,RMK !SN!,RMK !SN!,0.04,WUHU216DAVISVP2,2013-02-06 21:09:00,
2013-02-06 16:14:00,28.6,13.2,30.36,East,93,0.0,2.0,52,0.02,RMK !SN!,RMK !SN!,0.04,WUHU216DAVISVP2,2013-02-06 21:14:00,
2013-02-06 16:19:00,28.3,12.9,30.36,South,183,0.0,3.0,52,0.02,RMK !SN!,RMK !SN!,0.04,WUHU216DAVISVP2,2013-02-06 21:19:00,
2013-02-06 16:24:00,27.7,13.2,30.36,ENE,72,2.0,3.0,54,0.01,RMK !SN!,RMK !SN!,0.04,WUHU216DAVISVP2,2013-02-06 21:24:00,
2013-02-06 16:30:00,27.4,12.9,30.36,SSE,152,0.0,3.0,54,0.01,RMK !SN!,RMK !SN!,0.04,WUHU216DAVISVP2,2013-02-06 21:30:00,
2013-02-06 16:35:00,27.2,13.2,30.36,East,96,1.0,3.0,55,0.01,RMK !SN!,RMK !SN!,0.04,WUHU216DAVISVP2,2013-02-06 21:35:00,
2013-02-06 16:40:00,27.2,13.6,30.36,ESE,107,0.0,2.0,56,0.01,RMK !SN!,RMK !SN!,0.04,WUHU216DAVISVP2,2013-02-06 21:40:00,
2013-02-06 16:45:00,27.3,13.2,30.36,ESE,113,0.0,2.0,55,0.01,RMK !SN!,RMK !SN!,0.04,WUHU216DAVISVP2,2013-02-06 21:45:00,
2013-02-06 16:50:00,27.5,13.4,30.36,ESE,113,1.0,2.0,55,0.01,RMK !SN!,RMK !SN!,0.04,WUHU216DAVISVP2,2013-02-06 21:50:00,
2013-02-06 16:55:00,27.1,12.2,30.36,SSE,160,1.0,2.0,53,0.01,RMK !SN!,RMK !SN!,0.04,WUHU216DAVISVP2,2013-02-06 21:55:00,
2013-02-06 17:00:00,26.8,12.4,30.36,SSE,160,0.0,2.0,54,0.01,RMK !SN!,RMK !SN!,0.04,WUHU216DAVISVP2,2013-02-06 22:00:00,
2013-02-06 17:05:00,26.9,12.0,30.36,SSE,160,0.0,2.0,53,0.00,RMK !SN!,RMK !SN!,0.04,WUHU216DAVISVP2,2013-02-06 22:05:00,
2013-02-06 17:10:00,26.9,11.6,30.36,SSE,149,0.0,2.0,52,0.00,RMK !SN!,RMK !SN!,0.04,WUHU216DAVISVP2,2013-02-06 22:10:00,
2013-02-06 17:15:00,26.8,12.4,30.36,SE,127,0.0,2.0,54,0.00,RMK !SN!,RMK !SN!,0.04,WUHU216DAVISVP2,2013-02-06 22:15:00,
2013-02-06 17:20:00,26.9,12.9,30.36,SE,124,0.0,2.0,55,0.00,RMK !SN!,RMK !SN!,0.04,WUHU216DAVISVP2,2013-02-06 22:20:00,
2013-02-06 17:25:00,27.0,13.4,30.35,SE,125,0.0,2.0,56,0.00,RMK !SN!,RMK !SN!,0.04,WUHU216DAVISVP2,2013-02-06 22:25:00,
2013-02-06 17:30:00,26.7,13.1,30.35,SE,126,0.0,1.0,56,0.00,RMK !SN!,RMK !SN!,0.04,WUHU216DAVISVP2,2013-02-06 22:30:00,
2013-02-06 17:35:00,26.4,11.5,30.35,SSW,197,0.0,1.0,53,0.00,RMK !SN!,RMK !SN!,0.04,WUHU216DAVISVP2,2013-02-06 22:35:00,
2013-02-06 17:40:00,26.2,11.8,30.35,SSW,201,0.0,2.0,54,0.00,RMK !SN!,RMK !SN!,0.04,WUHU216DAVISVP2,2013-02-06 22:40:00,
2013-02-06 17:45:00,25.9,11.5,30.35,NNW,330,0.0,2.0,54,0.00,RMK !SN!,RMK !SN!,0.04,WUHU216DAVISVP2,2013-02-06 22:45:00,
2013-02-06 17:50:00,25.6,11.7,30.34,ENE,57,0.0,2.0,55,0.00,RMK !SN!,RMK !SN!,0.04,WUHU216DAVISVP2,2013-02-06 22:50:00,
2013-02-06 17:55:00,25.4,11.9,30.34,SE,125,0.0,2.0,56,0.00,RMK !SN!,RMK !SN!,0.04,WUHU216DAVISVP2,2013-02-06 22:55:00,
2013-02-06 18:01:00,25.0,11.5,30.35,SE,125,0.0,2.0,56,0.00,RMK !SN!,RMK !SN!,0.04,WUHU216DAVISVP2,2013-02-06 23:01:00,
2013-02-06 18:07:00,24.6,11.5,30.35,SE,127,0.0,1.0,57,0.00,RMK !SN!,RMK !SN!,0.04,WUHU216DAVISVP2,2013-02-06 23:07:00,
2013-02-06 18:12:00,24.4,11.3,30.35,SE,127,0.0,1.0,57,0.00,RMK !SN!,RMK !SN!,0.04,WUHU216DAVISVP2,2013-02-06 23:12:00,
2013-02-06 18:17:00,24.2,11.5,30.35,SE,127,0.0,1.0,58,0.00,RMK !SN!,RMK !SN!,0.04,WUHU216DAVISVP2,2013-02-06 23:17:00,
2013-02-06 18:22:00,24.1,11.8,30.35,SE,127,0.0,1.0,59,0.00,RMK !SN!,RMK !SN!,0.04,WUHU216DAVISVP2,2013-02-06 23:22:00,
2013-02-06 18:27:00,23.9,12.0,30.36,SE,127,0.0,0.0,60,0.00,RMK !SN!,RMK !SN!,0.04,WUHU216DAVISVP2,2013-02-06 23:27:00,
2013-02-06 18:32:00,23.8,12.0,30.36,SE,136,0.0,1.0,60,0.00,RMK !SN!,RMK !SN!,0.04,WUHU216DAVISVP2,2013-02-06 23:32:00,
2013-02-06 18:37:00,23.7,12.6,30.36,SE,137,0.0,1.0,62,0.00,RMK !SN!,RMK !SN!,0.04,WUHU216DAVISVP2,2013-02-06 23:37:00,
2013-02-06 18:42:00,23.5,12.8,30.37,SE,136,0.0,1.0,63,0.00,RMK !SN!,RMK !SN!,0.04,WUHU216DAVISVP2,2013-02-06 23:42:00,
2013-02-06 18:47:00,23.5,12.4,30.37,SE,136,0.0,1.0,62,0.00,RMK !SN!,RMK !SN!,0.04,WUHU216DAVISVP2,2013-02-06 23:47:00,
2013-02-06 18:52:00,23.4,12.6,30.38,SE,136,0.0,1.0,63,0.00,RMK !SN!,RMK !SN!,0.04,WUHU216DAVISVP2,2013-02-06 23:52:00,
2013-02-06 18:57:00,23.0,12.7,30.38,SE,136,0.0,1.0,64,0.00,RMK !SN!,RMK !SN!,0.04,WUHU216DAVISVP2,2013-02-06 23:57:00,
2013-02-06 19:02:00,22.8,13.2,30.38,SE,136,0.0,0.0,66,0.00,RMK !SN!,RMK !SN!,0.04,WUHU216DAVISVP2,2013-02-07 00:02:00,
2013-02-06 19:07:00,22.7,13.8,30.38,SE,136,0.0,0.0,68,0.00,RMK !SN!,RMK !SN!,0.04,WUHU216DAVISVP2,2013-02-07 00:07:00,
2013-02-06 19:12:00,22.4,13.4,30.38,SE,136,0.0,0.0,68,0.00,RMK !SN!,RMK !SN!,0.04,WUHU216DAVISVP2,2013-02-07 00:12:00,
2013-02-06 19:17:00,22.3,13.4,30.38,SE,136,0.0,0.0,68,0.00,RMK !SN!,RMK !SN!,0.04,WUHU216DAVISVP2,2013-02-07 00:17:00,
2013-02-06 19:22:00,22.2,13.3,30.38,SE,136,0.0,0.0,68,0.00,RMK !SN!,RMK !SN!,0.04,WUHU216DAVISVP2,2013-02-07 00:22:00,
2013-02-06 19:27:00,22.0,13.4,30.39,SE,136,0.0,0.0,69,0.00,RMK !SN!,RMK !SN!,0.04,WUHU216DAVISVP2,2013-02-07 00:27:00,
2013-02-06 19:33:00,22.0,13.8,30.39,SE,136,0.0,0.0,70,0.00,RMK !SN!,RMK !SN!,0.04,WUHU216DAVISVP2,2013-02-07 00:33:00,
2013-02-06 19:38:00,21.9,13.7,30.39,SE,136,0.0,0.0,70,0.00,RMK !SN!,RMK !SN!,0.04,WUHU216DAVISVP2,2013-02-07 00:38:00,
2013-02-06 19:43:00,21.7,13.5,30.39,SE,136,0.0,0.0,70,0.00,RMK !SN!,RMK !SN!,0.04,WUHU216DAVISVP2,2013-02-07 00:43:00,
2013-02-06 19:48:00,21.4,13.5,30.39,SE,136,0.0,0.0,71,0.00,RMK !SN!,RMK !SN!,0.04,WUHU216DAVISVP2,2013-02-07 00:48:00,
2013-02-06 19:53:00,21.2,13.6,30.39,SE,136,0.0,0.0,72,0.00,RMK !SN!,RMK !SN!,0.04,WUHU216DAVISVP2,2013-02-07 00:53:00,
2013-02-06 19:58:00,20.9,13.3,30.39,SE,137,0.0,0.0,72,0.00,RMK !SN!,RMK !SN!,0.04,WUHU216DAVISVP2,2013-02-07 00:58:00,
2013-02-06 20:03:00,20.7,13.5,30.39,SE,136,0.0,0.0,73,0.00,RMK !SN!,RMK !SN!,0.04,WUHU216DAVISVP2,2013-02-07 01:03:00,
2013-02-06 20:08:00,20.5,13.6,30.39,SE,136,0.0,0.0,74,0.00,RMK !SN!,RMK !SN!,0.04,WUHU216DAVISVP2,2013-02-07 01:08:00,
2013-02-06 20:13:00,20.3,13.4,30.39,SE,136,0.0,0.0,74,0.00,RMK !SN!,RMK !SN!,0.04,WUHU216DAVISVP2,2013-02-07 01:13:00,
2013-02-06 20:18:00,20.4,13.8,30.39,SE,137,0.0,0.0,75,0.00,RMK !SN!,RMK !SN!,0.04,WUHU216DAVISVP2,2013-02-07 01:18:00,
2013-02-06 20:23:00,20.5,13.6,30.39,SE,137,0.0,0.0,74,0.00,RMK !SN!,RMK !SN!,0.04,WUHU216DAVISVP2,2013-02-07 01:23:00,
2013-02-06 20:28:00,20.4,13.8,30.39,SE,136,0.0,0.0,75,0.00,RMK !SN!,RMK !SN!,0.04,WUHU216DAVISVP2,2013-02-07 01:28:00,
2013-02-06 20:33:00,20.3,13.7,30.40,SE,137,0.0,0.0,75,0.00,RMK !SN!,RMK !SN!,0.04,WUHU216DAVISVP2,2013-02-07 01:33:00,
2013-02-06 20:38:00,20.2,13.9,30.39,SE,136,0.0,0.0,76,0.00,RMK !SN!,RMK !SN!,0.04,WUHU216DAVISVP2,2013-02-07 01:38:00,
2013-02-06 20:43:00,20.2,13.8,30.39,SE,137,0.0,0.0,76,0.00,RMK !SN!,RMK !SN!,0.04,WUHU216DAVISVP2,2013-02-07 01:43:00,
2013-02-06 20:48:00,20.2,14.1,30.39,SE,137,0.0,0.0,77,0.00,RMK !SN!,RMK !SN!,0.04,WUHU216DAVISVP2,2013-02-07 01:48:00,
2013-02-06 20:53:00,20.1,14.1,30.39,SE,136,0.0,0.0,77,0.00,RMK !SN!,RMK !SN!,0.04,WUHU216DAVISVP2,2013-02-07 01:53:00,
2013-02-06 20:58:00,19.8,14.1,30.39,SE,136,0.0,0.0,78,0.00,RMK !SN!,RMK !SN!,0.04,WUHU216DAVISVP2,2013-02-07 01:58:00,
2013-02-06 21:03:00,19.6,14.1,30.39,SE,137,0.0,0.0,79,0.00,RMK !SN!,RMK !SN!,0.04,WUHU216DAVISVP2,2013-02-07 02:03:00,
2013-02-06 21:08:00,19.4,14.0,30.39,SE,137,0.0,0.0,79,0.00,RMK !SN!,RMK !SN!,0.04,WUHU216DAVISVP2,2013-02-07 02:08:00,
2013-02-06 21:13:00,19.4,14.0,30.39,SE,136,0.0,0.0,79,0.00,RMK !SN!,RMK !SN!,0.04,WUHU216DAVISVP2,2013-02-07 02:13:00,
2013-02-06 21:18:00,19.3,13.9,30.39,SE,137,0.0,0.0,79,0.00,RMK !SN!,RMK !SN!,0.04,WUHU216DAVISVP2,2013-02-07 02:18:00,
2013-02-06 21:23:00,19.2,14.0,30.39,SE,136,0.0,0.0,80,0.00,RMK !SN!,RMK !SN!,0.04,WUHU216DAVISVP2,2013-02-07 02:23:00,
2013-02-06 21:28:00,19.3,14.1,30.39,SE,137,0.0,0.0,80,0.00,RMK !SN!,RMK !SN!,0.04,WUHU216DAVISVP2,2013-02-07 02:28:00,
2013-02-06 21:33:00,19.4,14.2,30.39,SE,136,0.0,0.0,80,0.00,RMK !SN!,RMK !SN!,0.04,WUHU216DAVISVP2,2013-02-07 02:33:00,
2013-02-06 21:38:00,19.4,14.2,30.39,SE,136,0.0,0.0,80,0.00,RMK !SN!,RMK !SN!,0.04,WUHU216DAVISVP2,2013-02-07 02:38:00,
2013-02-06 21:43:00,19.5,14.3,30.39,SE,136,0.0,0.0,80,0.00,RMK !SN!,RMK !SN!,0.04,WUHU216DAVISVP2,2013-02-07 02:43:00,
2013-02-06 21:48:00,19.6,14.4,30.38,SE,136,0.0,0.0,80,0.00,RMK !SN!,RMK !SN!,0.04,WUHU216DAVISVP2,2013-02-07 02:48:00,
2013-02-06 21:53:00,19.9,14.4,30.38,SE,136,0.0,0.0,79,0.00,RMK !SN!,RMK !SN!,0.04,WUHU216DAVISVP2,2013-02-07 02:53:00,
2013-02-06 21:58:00,20.0,14.3,30.38,SE,136,0.0,0.0,78,0.00,RMK !SN!,RMK !SN!,0.04,WUHU216DAVISVP2,2013-02-07 02:58:00,
2013-02-06 22:03:00,20.1,14.4,30.38,SE,136,0.0,0.0,78,0.00,RMK !SN!,RMK !SN!,0.04,WUHU216DAVISVP2,2013-02-07 03:03:00,
2013-02-06 22:08:00,20.3,14.2,30.38,SE,136,0.0,0.0,77,0.00,RMK !SN!,RMK !SN!,0.04,WUHU216DAVISVP2,2013-02-07 03:08:00,
2013-02-06 22:13:00,20.6,14.6,30.38,SE,135,0.0,0.0,77,0.00,RMK !SN!,RMK !SN!,0.04,WUHU216DAVISVP2,2013-02-07 03:13:00,
2013-02-06 22:18:00,20.9,14.3,30.37,SE,136,0.0,0.0,75,0.00,RMK !SN!,RMK !SN!,0.04,WUHU216DAVISVP2,2013-02-07 03:18:00,
2013-02-06 22:23:00,21.3,14.6,30.37,SE,136,0.0,1.0,75,0.00,RMK !SN!,RMK !SN!,0.04,WUHU216DAVISVP2,2013-02-07 03:23:00,
2013-02-06 22:28:00,21.5,14.8,30.36,SE,136,0.0,1.0,75,0.00,RMK !SN!,RMK !SN!,0.04,WUHU216DAVISVP2,2013-02-07 03:28:00,
2013-02-06 22:33:00,21.7,14.7,30.36,SE,136,0.0,1.0,74,0.00,RMK !SN!,RMK !SN!,0.04,WUHU216DAVISVP2,2013-02-07 03:33:00,
2013-02-06 22:38:00,21.6,14.3,30.36,South,173,1.0,1.0,73,0.00,RMK !SN!,RMK !SN!,0.04,WUHU216DAVISVP2,2013-02-07 03:38:00,
2013-02-06 22:43:00,21.8,14.5,30.35,SSE,156,0.0,1.0,73,0.00,RMK !SN!,RMK !SN!,0.04,WUHU216DAVISVP2,2013-02-07 03:43:00,
2013-02-06 22:48:00,21.9,14.3,30.35,SSE,156,0.0,1.0,72,0.00,RMK !SN!,RMK !SN!,0.04,WUHU216DAVISVP2,2013-02-07 03:48:00,
2013-02-06 22:53:00,22.0,14.4,30.35,SSE,156,0.0,1.0,72,0.00,RMK !SN!,RMK !SN!,0.04,WUHU216DAVISVP2,2013-02-07 03:53:00,
2013-02-06 22:58:00,22.0,14.7,30.35,SE,136,0.0,1.0,73,0.00,RMK !SN!,RMK !SN!,0.04,WUHU216DAVISVP2,2013-02-07 03:58:00,
2013-02-06 23:03:00,22.0,14.3,30.36,ENE,70,0.0,1.0,72,0.00,RMK !SN!,RMK !SN!,0.04,WUHU216DAVISVP2,2013-02-07 04:03:00,
2013-02-06 23:08:00,22.0,14.4,30.35,ENE,78,0.0,1.0,72,0.00,RMK !SN!,RMK !SN!,0.04,WUHU216DAVISVP2,2013-02-07 04:08:00,
2013-02-06 23:13:00,22.0,14.3,30.35,East,79,0.0,1.0,72,0.00,RMK !SN!,RMK !SN!,0.04,WUHU216DAVISVP2,2013-02-07 04:13:00,
2013-02-06 23:18:00,21.8,14.5,30.35,East,79,0.0,1.0,73,0.00,RMK !SN!,RMK !SN!,0.04,WUHU216DAVISVP2,2013-02-07 04:18:00,
2013-02-06 23:23:00,21.7,14.4,30.35,NW,323,0.0,2.0,73,0.00,RMK !SN!,RMK !SN!,0.04,WUHU216DAVISVP2,2013-02-07 04:23:00,
2013-02-06 23:29:00,21.7,14.1,30.34,NW,323,0.0,2.0,72,0.00,RMK !SN!,RMK !SN!,0.04,WUHU216DAVISVP2,2013-02-07 04:29:00,
2013-02-06 23:34:00,21.8,14.2,30.34,NW,323,0.0,2.0,72,0.00,RMK !SN!,RMK !SN!,0.04,WUHU216DAVISVP2,2013-02-07 04:34:00,
2013-02-06 23:39:00,21.7,14.1,30.33,SSE,152,0.0,2.0,72,0.00,RMK !SN!,RMK !SN!,0.04,WUHU216DAVISVP2,2013-02-07 04:39:00,
2013-02-06 23:45:00,21.7,14.1,30.33,SSW,211,0.0,2.0,72,0.00,RMK !SN!,RMK !SN!,0.04,WUHU216DAVISVP2,2013-02-07 04:45:00,
2013-02-06 23:50:00,21.7,14.1,30.33,West,269,0.0,2.0,72,0.00,RMK !SN!,RMK !SN!,0.04,WUHU216DAVISVP2,2013-02-07 04:50:00,
2013-02-06 23:55:00,21.6,14.3,30.33,West,263,0.0,2.0,73,0.00,RMK !SN!,RMK !SN!,0.04,WUHU216DAVISVP2,2013-02-07 04:55:00,